sensor_id;sensor_type;location;lat;lon;timestamp;P1;durP1;ratioP1;P2;durP2;ratioP2
26686;SDS011;14298;50.900;4.648;2023-06-22T00:01:47;2.90;;;1.80;;
26686;SDS011;14298;50.900;4.648;2023-06-22T00:04:15;3.73;;;1.97;;
26686;SDS011;14298;50.900;4.648;2023-06-22T00:06:43;1.63;;;1.53;;
26686;SDS011;14298;50.900;4.648;2023-06-22T00:09:11;2.73;;;2.00;;
26686;SDS011;14298;50.900;4.648;2023-06-22T00:11:39;2.33;;;2.13;;
26686;SDS011;14298;50.900;4.648;2023-06-22T00:14:07;2.37;;;2.10;;
26686;SDS011;14298;50.900;4.648;2023-06-22T00:16:35;2.43;;;2.23;;
26686;SDS011;14298;50.900;4.648;2023-06-22T00:19:03;3.37;;;2.37;;
26686;SDS011;14298;50.900;4.648;2023-06-22T00:21:31;2.77;;;2.17;;
26686;SDS011;14298;50.900;4.648;2023-06-22T00:23:59;1.73;;;1.63;;
26686;SDS011;14298;50.900;4.648;2023-06-22T00:26:27;2.27;;;1.97;;
26686;SDS011;14298;50.900;4.648;2023-06-22T00:28:55;1.60;;;1.50;;
26686;SDS011;14298;50.900;4.648;2023-06-22T00:31:23;2.37;;;2.03;;
26686;SDS011;14298;50.900;4.648;2023-06-22T00:33:51;2.27;;;1.87;;
26686;SDS011;14298;50.900;4.648;2023-06-22T00:36:19;2.37;;;1.77;;
26686;SDS011;14298;50.900;4.648;2023-06-22T00:38:47;2.90;;;2.43;;
26686;SDS011;14298;50.900;4.648;2023-06-22T00:41:17;1.93;;;1.73;;
26686;SDS011;14298;50.900;4.648;2023-06-22T00:43:45;4.00;;;2.43;;
26686;SDS011;14298;50.900;4.648;2023-06-22T00:46:13;2.00;;;1.70;;
26686;SDS011;14298;50.900;4.648;2023-06-22T00:48:41;3.17;;;2.50;;
26686;SDS011;14298;50.900;4.648;2023-06-22T00:51:10;1.80;;;1.60;;
26686;SDS011;14298;50.900;4.648;2023-06-22T00:53:38;2.27;;;2.10;;
26686;SDS011;14298;50.900;4.648;2023-06-22T00:56:08;3.07;;;2.17;;
26686;SDS011;14298;50.900;4.648;2023-06-22T00:58:36;9.83;;;2.33;;
26686;SDS011;14298;50.900;4.648;2023-06-22T01:01:04;4.57;;;1.73;;
26686;SDS011;14298;50.900;4.648;2023-06-22T01:03:32;2.57;;;1.37;;
26686;SDS011;14298;50.900;4.648;2023-06-22T01:06:07;1.70;;;1.40;;
26686;SDS011;14298;50.900;4.648;2023-06-22T01:08:31;2.17;;;1.67;;
26686;SDS011;14298;50.900;4.648;2023-06-22T01:13:51;2.23;;;2.03;;
26686;SDS011;14298;50.900;4.648;2023-06-22T01:16:20;3.93;;;2.07;;
26686;SDS011;14298;50.900;4.648;2023-06-22T01:18:50;1.70;;;1.60;;
26686;SDS011;14298;50.900;4.648;2023-06-22T01:21:19;1.70;;;1.60;;
26686;SDS011;14298;50.900;4.648;2023-06-22T01:26:51;1.37;;;1.27;;
26686;SDS011;14298;50.900;4.648;2023-06-22T01:29:12;1.43;;;1.20;;
26686;SDS011;14298;50.900;4.648;2023-06-22T01:31:40;2.17;;;1.67;;
26686;SDS011;14298;50.900;4.648;2023-06-22T01:34:09;1.67;;;1.57;;
26686;SDS011;14298;50.900;4.648;2023-06-22T01:36:37;2.90;;;2.03;;
26686;SDS011;14298;50.900;4.648;2023-06-22T01:39:06;3.90;;;1.70;;
26686;SDS011;14298;50.900;4.648;2023-06-22T01:41:36;2.17;;;1.80;;
26686;SDS011;14298;50.900;4.648;2023-06-22T01:44:07;2.27;;;1.70;;
26686;SDS011;14298;50.900;4.648;2023-06-22T01:46:36;4.07;;;1.80;;
26686;SDS011;14298;50.900;4.648;2023-06-22T01:49:06;2.40;;;2.20;;
26686;SDS011;14298;50.900;4.648;2023-06-22T01:51:34;2.23;;;1.73;;
26686;SDS011;14298;50.900;4.648;2023-06-22T01:54:02;2.37;;;1.60;;
26686;SDS011;14298;50.900;4.648;2023-06-22T01:56:30;1.67;;;1.57;;
26686;SDS011;14298;50.900;4.648;2023-06-22T02:01:54;2.80;;;1.87;;
26686;SDS011;14298;50.900;4.648;2023-06-22T02:04:24;2.33;;;2.03;;
26686;SDS011;14298;50.900;4.648;2023-06-22T02:06:48;2.93;;;2.20;;
26686;SDS011;14298;50.900;4.648;2023-06-22T02:09:18;1.97;;;1.57;;
26686;SDS011;14298;50.900;4.648;2023-06-22T02:11:47;1.40;;;1.30;;
26686;SDS011;14298;50.900;4.648;2023-06-22T02:14:18;2.30;;;2.10;;
26686;SDS011;14298;50.900;4.648;2023-06-22T02:16:46;4.03;;;1.80;;
26686;SDS011;14298;50.900;4.648;2023-06-22T02:19:14;3.70;;;1.83;;
26686;SDS011;14298;50.900;4.648;2023-06-22T02:21:42;1.70;;;1.60;;
26686;SDS011;14298;50.900;4.648;2023-06-22T02:24:10;1.77;;;1.67;;
26686;SDS011;14298;50.900;4.648;2023-06-22T02:26:38;1.93;;;1.70;;
26686;SDS011;14298;50.900;4.648;2023-06-22T02:29:08;2.23;;;2.00;;
26686;SDS011;14298;50.900;4.648;2023-06-22T02:31:36;1.77;;;1.67;;
26686;SDS011;14298;50.900;4.648;2023-06-22T02:34:04;2.57;;;2.37;;
26686;SDS011;14298;50.900;4.648;2023-06-22T02:36:32;2.23;;;2.03;;
26686;SDS011;14298;50.900;4.648;2023-06-22T02:39:00;1.90;;;1.80;;
26686;SDS011;14298;50.900;4.648;2023-06-22T02:41:30;2.73;;;2.07;;
26686;SDS011;14298;50.900;4.648;2023-06-22T02:43:58;2.50;;;1.87;;
26686;SDS011;14298;50.900;4.648;2023-06-22T02:46:26;2.13;;;1.80;;
26686;SDS011;14298;50.900;4.648;2023-06-22T02:48:54;1.90;;;1.80;;
26686;SDS011;14298;50.900;4.648;2023-06-22T02:51:22;1.93;;;1.80;;
26686;SDS011;14298;50.900;4.648;2023-06-22T02:53:50;1.67;;;1.47;;
26686;SDS011;14298;50.900;4.648;2023-06-22T02:56:19;2.43;;;2.17;;
26686;SDS011;14298;50.900;4.648;2023-06-22T02:58:48;1.67;;;1.57;;
26686;SDS011;14298;50.900;4.648;2023-06-22T03:01:16;1.73;;;1.40;;
26686;SDS011;14298;50.900;4.648;2023-06-22T03:03:46;2.60;;;1.73;;
26686;SDS011;14298;50.900;4.648;2023-06-22T03:06:14;3.10;;;2.07;;
26686;SDS011;14298;50.900;4.648;2023-06-22T03:08:42;2.33;;;2.13;;
26686;SDS011;14298;50.900;4.648;2023-06-22T03:11:10;2.33;;;1.63;;
26686;SDS011;14298;50.900;4.648;2023-06-22T03:13:38;1.50;;;1.40;;
26686;SDS011;14298;50.900;4.648;2023-06-22T03:16:06;2.33;;;2.13;;
26686;SDS011;14298;50.900;4.648;2023-06-22T03:18:34;2.10;;;1.90;;
26686;SDS011;14298;50.900;4.648;2023-06-22T03:21:02;2.93;;;2.07;;
26686;SDS011;14298;50.900;4.648;2023-06-22T03:23:30;1.93;;;1.63;;
26686;SDS011;14298;50.900;4.648;2023-06-22T03:25:58;1.70;;;1.60;;
26686;SDS011;14298;50.900;4.648;2023-06-22T03:28:26;1.47;;;1.37;;
26686;SDS011;14298;50.900;4.648;2023-06-22T03:30:54;2.37;;;2.17;;
26686;SDS011;14298;50.900;4.648;2023-06-22T03:33:22;2.23;;;1.70;;
26686;SDS011;14298;50.900;4.648;2023-06-22T03:35:50;3.77;;;2.40;;
26686;SDS011;14298;50.900;4.648;2023-06-22T03:38:18;2.90;;;1.83;;
26686;SDS011;14298;50.900;4.648;2023-06-22T03:40:46;2.10;;;1.53;;
26686;SDS011;14298;50.900;4.648;2023-06-22T03:43:14;2.30;;;1.60;;
26686;SDS011;14298;50.900;4.648;2023-06-22T03:45:42;2.17;;;1.97;;
26686;SDS011;14298;50.900;4.648;2023-06-22T03:48:12;2.70;;;2.50;;
26686;SDS011;14298;50.900;4.648;2023-06-22T03:50:40;2.67;;;2.30;;
26686;SDS011;14298;50.900;4.648;2023-06-22T03:53:08;2.20;;;2.00;;
26686;SDS011;14298;50.900;4.648;2023-06-22T03:55:36;2.07;;;1.87;;
26686;SDS011;14298;50.900;4.648;2023-06-22T03:58:04;3.27;;;2.40;;
26686;SDS011;14298;50.900;4.648;2023-06-22T04:00:32;1.83;;;1.73;;
26686;SDS011;14298;50.900;4.648;2023-06-22T04:03:00;2.37;;;2.03;;
26686;SDS011;14298;50.900;4.648;2023-06-22T04:05:28;2.10;;;1.57;;
26686;SDS011;14298;50.900;4.648;2023-06-22T04:07:58;2.30;;;2.00;;
26686;SDS011;14298;50.900;4.648;2023-06-22T04:10:26;2.63;;;2.10;;
26686;SDS011;14298;50.900;4.648;2023-06-22T04:12:54;3.77;;;1.80;;
26686;SDS011;14298;50.900;4.648;2023-06-22T04:15:22;2.00;;;1.80;;
26686;SDS011;14298;50.900;4.648;2023-06-22T04:17:50;7.63;;;2.10;;
26686;SDS011;14298;50.900;4.648;2023-06-22T04:20:18;3.43;;;1.93;;
26686;SDS011;14298;50.900;4.648;2023-06-22T04:22:46;1.77;;;1.67;;
26686;SDS011;14298;50.900;4.648;2023-06-22T04:25:14;2.37;;;2.07;;
26686;SDS011;14298;50.900;4.648;2023-06-22T04:27:43;2.87;;;2.27;;
26686;SDS011;14298;50.900;4.648;2023-06-22T04:30:12;4.93;;;2.20;;
26686;SDS011;14298;50.900;4.648;2023-06-22T04:32:41;3.57;;;2.40;;
26686;SDS011;14298;50.900;4.648;2023-06-22T04:35:09;2.20;;;1.83;;
26686;SDS011;14298;50.900;4.648;2023-06-22T04:37:41;3.07;;;2.77;;
26686;SDS011;14298;50.900;4.648;2023-06-22T04:40:09;4.07;;;2.77;;
26686;SDS011;14298;50.900;4.648;2023-06-22T04:42:38;2.70;;;1.93;;
26686;SDS011;14298;50.900;4.648;2023-06-22T04:45:07;2.90;;;1.90;;
26686;SDS011;14298;50.900;4.648;2023-06-22T04:47:36;1.77;;;1.67;;
26686;SDS011;14298;50.900;4.648;2023-06-22T04:50:06;4.40;;;2.27;;
26686;SDS011;14298;50.900;4.648;2023-06-22T04:52:34;2.23;;;2.03;;
26686;SDS011;14298;50.900;4.648;2023-06-22T04:55:03;2.60;;;1.80;;
26686;SDS011;14298;50.900;4.648;2023-06-22T04:57:32;1.93;;;1.67;;
26686;SDS011;14298;50.900;4.648;2023-06-22T05:00:01;2.20;;;1.90;;
26686;SDS011;14298;50.900;4.648;2023-06-22T05:02:30;2.70;;;2.03;;
26686;SDS011;14298;50.900;4.648;2023-06-22T05:04:59;5.63;;;3.13;;
26686;SDS011;14298;50.900;4.648;2023-06-22T05:07:27;4.37;;;2.97;;
26686;SDS011;14298;50.900;4.648;2023-06-22T05:09:55;3.50;;;3.03;;
26686;SDS011;14298;50.900;4.648;2023-06-22T05:12:23;4.30;;;2.47;;
26686;SDS011;14298;50.900;4.648;2023-06-22T05:14:51;3.20;;;2.33;;
26686;SDS011;14298;50.900;4.648;2023-06-22T05:17:19;2.47;;;2.20;;
26686;SDS011;14298;50.900;4.648;2023-06-22T05:19:47;2.43;;;2.13;;
26686;SDS011;14298;50.900;4.648;2023-06-22T05:22:15;2.57;;;2.37;;
26686;SDS011;14298;50.900;4.648;2023-06-22T05:24:43;3.13;;;2.67;;
26686;SDS011;14298;50.900;4.648;2023-06-22T05:27:12;6.70;;;2.50;;
26686;SDS011;14298;50.900;4.648;2023-06-22T05:29:40;4.43;;;2.40;;
26686;SDS011;14298;50.900;4.648;2023-06-22T05:32:09;2.77;;;2.57;;
26686;SDS011;14298;50.900;4.648;2023-06-22T05:34:38;3.33;;;2.43;;
26686;SDS011;14298;50.900;4.648;2023-06-22T05:37:06;3.57;;;2.63;;
26686;SDS011;14298;50.900;4.648;2023-06-22T05:39:36;3.07;;;2.77;;
26686;SDS011;14298;50.900;4.648;2023-06-22T05:42:05;5.00;;;2.70;;
26686;SDS011;14298;50.900;4.648;2023-06-22T05:44:33;3.10;;;2.80;;
26686;SDS011;14298;50.900;4.648;2023-06-22T05:47:01;3.00;;;2.63;;
26686;SDS011;14298;50.900;4.648;2023-06-22T05:49:29;5.53;;;3.27;;
26686;SDS011;14298;50.900;4.648;2023-06-22T05:51:59;4.50;;;3.40;;
26686;SDS011;14298;50.900;4.648;2023-06-22T05:54:28;3.33;;;2.43;;
26686;SDS011;14298;50.900;4.648;2023-06-22T05:56:56;7.57;;;3.67;;
26686;SDS011;14298;50.900;4.648;2023-06-22T05:59:24;2.77;;;2.20;;
26686;SDS011;14298;50.900;4.648;2023-06-22T06:01:52;3.47;;;2.63;;
26686;SDS011;14298;50.900;4.648;2023-06-22T06:04:20;7.70;;;3.00;;
26686;SDS011;14298;50.900;4.648;2023-06-22T06:06:47;3.40;;;2.47;;
26686;SDS011;14298;50.900;4.648;2023-06-22T06:09:15;7.33;;;2.97;;
26686;SDS011;14298;50.900;4.648;2023-06-22T06:11:43;4.10;;;3.03;;
26686;SDS011;14298;50.900;4.648;2023-06-22T06:14:11;3.47;;;3.07;;
26686;SDS011;14298;50.900;4.648;2023-06-22T06:16:39;5.17;;;3.30;;
26686;SDS011;14298;50.900;4.648;2023-06-22T06:19:07;3.87;;;3.50;;
26686;SDS011;14298;50.900;4.648;2023-06-22T06:21:35;4.17;;;3.17;;
26686;SDS011;14298;50.900;4.648;2023-06-22T06:24:03;9.80;;;2.90;;
26686;SDS011;14298;50.900;4.648;2023-06-22T06:26:32;3.17;;;2.87;;
26686;SDS011;14298;50.900;4.648;2023-06-22T06:29:01;9.03;;;4.40;;
26686;SDS011;14298;50.900;4.648;2023-06-22T06:31:30;9.07;;;3.57;;
26686;SDS011;14298;50.900;4.648;2023-06-22T06:33:58;4.33;;;3.47;;
26686;SDS011;14298;50.900;4.648;2023-06-22T06:36:26;3.53;;;2.83;;
26686;SDS011;14298;50.900;4.648;2023-06-22T06:38:54;6.07;;;3.73;;
26686;SDS011;14298;50.900;4.648;2023-06-22T06:41:22;5.63;;;4.00;;
26686;SDS011;14298;50.900;4.648;2023-06-22T06:43:50;3.87;;;3.43;;
26686;SDS011;14298;50.900;4.648;2023-06-22T06:46:18;4.53;;;3.23;;
26686;SDS011;14298;50.900;4.648;2023-06-22T06:48:47;4.73;;;3.80;;
26686;SDS011;14298;50.900;4.648;2023-06-22T06:51:15;9.90;;;4.63;;
26686;SDS011;14298;50.900;4.648;2023-06-22T06:53:43;6.57;;;4.27;;
26686;SDS011;14298;50.900;4.648;2023-06-22T06:56:11;5.17;;;4.20;;
26686;SDS011;14298;50.900;4.648;2023-06-22T06:58:42;4.07;;;3.50;;
26686;SDS011;14298;50.900;4.648;2023-06-22T07:01:12;11.30;;;3.60;;
26686;SDS011;14298;50.900;4.648;2023-06-22T07:03:40;11.67;;;4.27;;
26686;SDS011;14298;50.900;4.648;2023-06-22T07:06:08;6.83;;;4.90;;
26686;SDS011;14298;50.900;4.648;2023-06-22T07:08:36;6.63;;;4.97;;
26686;SDS011;14298;50.900;4.648;2023-06-22T07:11:06;5.73;;;3.83;;
26686;SDS011;14298;50.900;4.648;2023-06-22T07:13:34;5.93;;;4.57;;
26686;SDS011;14298;50.900;4.648;2023-06-22T07:16:02;7.97;;;4.70;;
26686;SDS011;14298;50.900;4.648;2023-06-22T07:18:30;6.37;;;4.47;;
26686;SDS011;14298;50.900;4.648;2023-06-22T07:20:58;6.50;;;4.57;;
26686;SDS011;14298;50.900;4.648;2023-06-22T07:23:26;7.53;;;4.90;;
26686;SDS011;14298;50.900;4.648;2023-06-22T07:25:54;8.77;;;4.07;;
26686;SDS011;14298;50.900;4.648;2023-06-22T07:28:22;5.17;;;4.33;;
26686;SDS011;14298;50.900;4.648;2023-06-22T07:30:50;5.87;;;3.90;;
26686;SDS011;14298;50.900;4.648;2023-06-22T07:33:18;5.97;;;4.23;;
26686;SDS011;14298;50.900;4.648;2023-06-22T07:35:46;7.17;;;3.83;;
26686;SDS011;14298;50.900;4.648;2023-06-22T07:38:15;7.27;;;4.37;;
26686;SDS011;14298;50.900;4.648;2023-06-22T07:40:43;4.10;;;3.70;;
26686;SDS011;14298;50.900;4.648;2023-06-22T07:43:11;7.60;;;3.50;;
26686;SDS011;14298;50.900;4.648;2023-06-22T07:45:39;4.67;;;3.73;;
26686;SDS011;14298;50.900;4.648;2023-06-22T07:48:08;6.77;;;4.33;;
26686;SDS011;14298;50.900;4.648;2023-06-22T07:50:37;6.50;;;4.20;;
26686;SDS011;14298;50.900;4.648;2023-06-22T07:53:05;4.17;;;3.33;;
26686;SDS011;14298;50.900;4.648;2023-06-22T07:55:32;7.47;;;3.40;;
26686;SDS011;14298;50.900;4.648;2023-06-22T07:58:01;5.60;;;3.30;;
26686;SDS011;14298;50.900;4.648;2023-06-22T08:00:29;4.50;;;3.57;;
26686;SDS011;14298;50.900;4.648;2023-06-22T08:02:56;5.37;;;3.77;;
26686;SDS011;14298;50.900;4.648;2023-06-22T08:05:24;4.53;;;3.50;;
26686;SDS011;14298;50.900;4.648;2023-06-22T08:07:53;5.10;;;3.17;;
26686;SDS011;14298;50.900;4.648;2023-06-22T08:10:22;3.40;;;3.10;;
26686;SDS011;14298;50.900;4.648;2023-06-22T08:12:50;3.60;;;3.20;;
26686;SDS011;14298;50.900;4.648;2023-06-22T08:15:19;4.17;;;3.13;;
26686;SDS011;14298;50.900;4.648;2023-06-22T08:17:47;4.97;;;3.77;;
26686;SDS011;14298;50.900;4.648;2023-06-22T08:20:15;4.40;;;3.13;;
26686;SDS011;14298;50.900;4.648;2023-06-22T08:22:43;3.10;;;2.80;;
26686;SDS011;14298;50.900;4.648;2023-06-22T08:25:11;4.77;;;2.83;;
26686;SDS011;14298;50.900;4.648;2023-06-22T08:27:40;3.03;;;2.47;;
26686;SDS011;14298;50.900;4.648;2023-06-22T08:30:09;3.27;;;2.97;;
26686;SDS011;14298;50.900;4.648;2023-06-22T08:32:38;5.47;;;3.60;;
26686;SDS011;14298;50.900;4.648;2023-06-22T08:35:06;3.13;;;2.80;;
26686;SDS011;14298;50.900;4.648;2023-06-22T08:37:35;3.77;;;3.03;;
26686;SDS011;14298;50.900;4.648;2023-06-22T08:40:06;2.73;;;2.53;;
26686;SDS011;14298;50.900;4.648;2023-06-22T08:42:36;3.47;;;2.40;;
26686;SDS011;14298;50.900;4.648;2023-06-22T08:45:05;2.97;;;2.63;;
26686;SDS011;14298;50.900;4.648;2023-06-22T08:47:33;3.47;;;3.17;;
26686;SDS011;14298;50.900;4.648;2023-06-22T08:50:01;3.33;;;2.23;;
26686;SDS011;14298;50.900;4.648;2023-06-22T08:52:31;2.97;;;2.23;;
26686;SDS011;14298;50.900;4.648;2023-06-22T08:54:59;3.03;;;2.37;;
26686;SDS011;14298;50.900;4.648;2023-06-22T08:57:27;5.47;;;3.00;;
26686;SDS011;14298;50.900;4.648;2023-06-22T08:59:56;3.20;;;2.33;;
26686;SDS011;14298;50.900;4.648;2023-06-22T09:02:27;3.60;;;3.07;;
26686;SDS011;14298;50.900;4.648;2023-06-22T09:04:58;3.87;;;2.40;;
26686;SDS011;14298;50.900;4.648;2023-06-22T09:07:26;3.70;;;2.30;;
26686;SDS011;14298;50.900;4.648;2023-06-22T09:09:55;3.77;;;3.07;;
26686;SDS011;14298;50.900;4.648;2023-06-22T09:12:23;2.33;;;2.13;;
26686;SDS011;14298;50.900;4.648;2023-06-22T09:14:53;2.27;;;2.07;;
26686;SDS011;14298;50.900;4.648;2023-06-22T09:17:21;4.90;;;2.50;;
26686;SDS011;14298;50.900;4.648;2023-06-22T09:19:49;4.43;;;2.13;;
26686;SDS011;14298;50.900;4.648;2023-06-22T09:22:17;3.63;;;2.00;;
26686;SDS011;14298;50.900;4.648;2023-06-22T09:24:45;3.07;;;2.27;;
26686;SDS011;14298;50.900;4.648;2023-06-22T09:27:13;2.50;;;2.30;;
26686;SDS011;14298;50.900;4.648;2023-06-22T09:29:41;2.37;;;2.13;;
26686;SDS011;14298;50.900;4.648;2023-06-22T09:32:09;1.67;;;1.57;;
26686;SDS011;14298;50.900;4.648;2023-06-22T09:34:37;4.07;;;2.17;;
26686;SDS011;14298;50.900;4.648;2023-06-22T09:37:05;4.63;;;2.47;;
26686;SDS011;14298;50.900;4.648;2023-06-22T09:39:33;3.00;;;2.67;;
26686;SDS011;14298;50.900;4.648;2023-06-22T09:42:01;3.13;;;2.83;;
26686;SDS011;14298;50.900;4.648;2023-06-22T09:44:29;3.10;;;2.37;;
26686;SDS011;14298;50.900;4.648;2023-06-22T09:46:57;2.40;;;2.17;;
26686;SDS011;14298;50.900;4.648;2023-06-22T09:49:25;3.43;;;2.80;;
26686;SDS011;14298;50.900;4.648;2023-06-22T09:51:53;3.97;;;2.67;;
26686;SDS011;14298;50.900;4.648;2023-06-22T09:54:21;4.10;;;3.47;;
26686;SDS011;14298;50.900;4.648;2023-06-22T09:56:49;4.70;;;3.27;;
26686;SDS011;14298;50.900;4.648;2023-06-22T09:59:17;9.70;;;5.00;;
26686;SDS011;14298;50.900;4.648;2023-06-22T10:01:45;21.67;;;20.27;;
26686;SDS011;14298;50.900;4.648;2023-06-22T10:04:13;75.17;;;70.93;;
26686;SDS011;14298;50.900;4.648;2023-06-22T10:06:41;79.43;;;74.63;;
26686;SDS011;14298;50.900;4.648;2023-06-22T10:09:09;47.53;;;44.63;;
26686;SDS011;14298;50.900;4.648;2023-06-22T10:11:37;37.67;;;35.40;;
26686;SDS011;14298;50.900;4.648;2023-06-22T10:14:05;17.63;;;16.20;;
26686;SDS011;14298;50.900;4.648;2023-06-22T10:16:33;16.80;;;15.27;;
26686;SDS011;14298;50.900;4.648;2023-06-22T10:19:02;16.67;;;15.57;;
26686;SDS011;14298;50.900;4.648;2023-06-22T10:21:30;17.10;;;15.80;;
26686;SDS011;14298;50.900;4.648;2023-06-22T10:23:59;16.13;;;15.00;;
26686;SDS011;14298;50.900;4.648;2023-06-22T10:26:29;13.07;;;12.03;;
26686;SDS011;14298;50.900;4.648;2023-06-22T10:28:57;16.20;;;14.27;;
26686;SDS011;14298;50.900;4.648;2023-06-22T10:31:25;13.00;;;11.80;;
26686;SDS011;14298;50.900;4.648;2023-06-22T10:33:54;14.70;;;13.27;;
26686;SDS011;14298;50.900;4.648;2023-06-22T10:36:22;15.20;;;14.00;;
26686;SDS011;14298;50.900;4.648;2023-06-22T10:38:50;14.33;;;12.90;;
26686;SDS011;14298;50.900;4.648;2023-06-22T10:41:20;16.03;;;14.80;;
26686;SDS011;14298;50.900;4.648;2023-06-22T10:43:48;18.30;;;16.83;;
26686;SDS011;14298;50.900;4.648;2023-06-22T10:46:16;21.80;;;19.63;;
26686;SDS011;14298;50.900;4.648;2023-06-22T10:48:44;20.80;;;19.33;;
26686;SDS011;14298;50.900;4.648;2023-06-22T10:51:12;16.93;;;15.33;;
26686;SDS011;14298;50.900;4.648;2023-06-22T10:53:40;15.33;;;14.10;;
26686;SDS011;14298;50.900;4.648;2023-06-22T10:56:08;13.47;;;12.27;;
26686;SDS011;14298;50.900;4.648;2023-06-22T10:58:36;13.20;;;12.17;;
26686;SDS011;14298;50.900;4.648;2023-06-22T11:01:04;14.10;;;12.83;;
26686;SDS011;14298;50.900;4.648;2023-06-22T11:03:32;11.37;;;10.47;;
26686;SDS011;14298;50.900;4.648;2023-06-22T11:06:00;12.70;;;11.63;;
26686;SDS011;14298;50.900;4.648;2023-06-22T11:08:28;14.17;;;11.17;;
26686;SDS011;14298;50.900;4.648;2023-06-22T11:10:56;11.00;;;9.90;;
26686;SDS011;14298;50.900;4.648;2023-06-22T11:13:24;12.53;;;10.70;;
26686;SDS011;14298;50.900;4.648;2023-06-22T11:15:52;18.83;;;13.90;;
26686;SDS011;14298;50.900;4.648;2023-06-22T11:18:20;14.13;;;12.73;;
26686;SDS011;14298;50.900;4.648;2023-06-22T11:20:50;16.63;;;14.73;;
26686;SDS011;14298;50.900;4.648;2023-06-22T11:23:18;19.53;;;16.37;;
26686;SDS011;14298;50.900;4.648;2023-06-22T11:25:46;16.97;;;15.17;;
26686;SDS011;14298;50.900;4.648;2023-06-22T11:28:14;19.87;;;16.50;;
26686;SDS011;14298;50.900;4.648;2023-06-22T11:30:42;19.03;;;16.20;;
26686;SDS011;14298;50.900;4.648;2023-06-22T11:33:10;25.20;;;16.90;;
26686;SDS011;14298;50.900;4.648;2023-06-22T11:35:38;22.90;;;17.33;;
26686;SDS011;14298;50.900;4.648;2023-06-22T11:38:06;31.60;;;16.57;;
26686;SDS011;14298;50.900;4.648;2023-06-22T11:40:34;21.80;;;16.87;;
26686;SDS011;14298;50.900;4.648;2023-06-22T11:43:02;23.23;;;17.23;;
26686;SDS011;14298;50.900;4.648;2023-06-22T11:45:31;21.03;;;18.83;;
26686;SDS011;14298;50.900;4.648;2023-06-22T11:47:59;22.10;;;20.10;;
26686;SDS011;14298;50.900;4.648;2023-06-22T11:50:27;26.00;;;21.33;;
26686;SDS011;14298;50.900;4.648;2023-06-22T11:52:57;27.83;;;21.97;;
26686;SDS011;14298;50.900;4.648;2023-06-22T11:55:25;25.40;;;22.43;;
26686;SDS011;14298;50.900;4.648;2023-06-22T11:57:56;27.40;;;21.67;;
26686;SDS011;14298;50.900;4.648;2023-06-22T12:00:26;25.47;;;22.80;;
26686;SDS011;14298;50.900;4.648;2023-06-22T12:05:41;23.80;;;21.40;;
26686;SDS011;14298;50.900;4.648;2023-06-22T12:08:09;23.90;;;21.33;;
26686;SDS011;14298;50.900;4.648;2023-06-22T12:10:39;28.27;;;20.97;;
26686;SDS011;14298;50.900;4.648;2023-06-22T12:13:07;25.83;;;21.90;;
26686;SDS011;14298;50.900;4.648;2023-06-22T12:15:35;29.33;;;19.70;;
26686;SDS011;14298;50.900;4.648;2023-06-22T12:18:03;22.93;;;20.50;;
26686;SDS011;14298;50.900;4.648;2023-06-22T12:20:31;22.93;;;19.87;;
26686;SDS011;14298;50.900;4.648;2023-06-22T12:22:59;34.93;;;21.27;;
26686;SDS011;14298;50.900;4.648;2023-06-22T12:25:27;29.50;;;19.77;;
26686;SDS011;14298;50.900;4.648;2023-06-22T12:27:54;17.80;;;15.83;;
26686;SDS011;14298;50.900;4.648;2023-06-22T12:30:22;19.40;;;17.40;;
26686;SDS011;14298;50.900;4.648;2023-06-22T12:32:50;22.43;;;17.60;;
26686;SDS011;14298;50.900;4.648;2023-06-22T12:35:18;18.07;;;15.50;;
26686;SDS011;14298;50.900;4.648;2023-06-22T12:37:46;17.47;;;15.67;;
26686;SDS011;14298;50.900;4.648;2023-06-22T12:40:14;25.37;;;15.20;;
26686;SDS011;14298;50.900;4.648;2023-06-22T12:42:44;21.90;;;15.77;;
26686;SDS011;14298;50.900;4.648;2023-06-22T12:45:12;19.10;;;14.00;;
26686;SDS011;14298;50.900;4.648;2023-06-22T12:47:40;21.23;;;13.77;;
26686;SDS011;14298;50.900;4.648;2023-06-22T12:50:08;33.67;;;14.23;;
26686;SDS011;14298;50.900;4.648;2023-06-22T12:52:36;24.93;;;15.67;;
26686;SDS011;14298;50.900;4.648;2023-06-22T12:55:08;33.50;;;12.80;;
26686;SDS011;14298;50.900;4.648;2023-06-22T12:57:36;28.67;;;16.87;;
26686;SDS011;14298;50.900;4.648;2023-06-22T13:00:04;25.13;;;16.60;;
26686;SDS011;14298;50.900;4.648;2023-06-22T13:02:34;20.00;;;14.17;;
26686;SDS011;14298;50.900;4.648;2023-06-22T13:05:02;20.33;;;12.77;;
26686;SDS011;14298;50.900;4.648;2023-06-22T13:07:32;24.23;;;15.13;;
26686;SDS011;14298;50.900;4.648;2023-06-22T13:10:00;21.77;;;15.30;;
26686;SDS011;14298;50.900;4.648;2023-06-22T13:12:28;24.97;;;15.77;;
26686;SDS011;14298;50.900;4.648;2023-06-22T13:14:56;19.87;;;14.97;;
26686;SDS011;14298;50.900;4.648;2023-06-22T13:17:24;29.87;;;18.63;;
26686;SDS011;14298;50.900;4.648;2023-06-22T13:19:52;25.30;;;17.03;;
26686;SDS011;14298;50.900;4.648;2023-06-22T13:24:56;19.40;;;15.30;;
26686;SDS011;14298;50.900;4.648;2023-06-22T13:27:24;41.77;;;19.07;;
26686;SDS011;14298;50.900;4.648;2023-06-22T13:29:52;25.67;;;16.30;;
26686;SDS011;14298;50.900;4.648;2023-06-22T13:32:20;25.17;;;15.20;;
26686;SDS011;14298;50.900;4.648;2023-06-22T13:34:48;27.53;;;17.30;;
26686;SDS011;14298;50.900;4.648;2023-06-22T13:37:17;19.23;;;14.73;;
26686;SDS011;14298;50.900;4.648;2023-06-22T13:39:45;30.37;;;19.30;;
26686;SDS011;14298;50.900;4.648;2023-06-22T13:42:13;35.17;;;19.57;;
26686;SDS011;14298;50.900;4.648;2023-06-22T13:44:41;23.17;;;16.23;;
26686;SDS011;14298;50.900;4.648;2023-06-22T13:47:09;24.73;;;16.37;;
26686;SDS011;14298;50.900;4.648;2023-06-22T13:49:37;35.07;;;17.33;;
26686;SDS011;14298;50.900;4.648;2023-06-22T13:52:05;23.00;;;17.07;;
26686;SDS011;14298;50.900;4.648;2023-06-22T13:54:35;35.27;;;16.37;;
26686;SDS011;14298;50.900;4.648;2023-06-22T13:57:03;29.03;;;17.30;;
26686;SDS011;14298;50.900;4.648;2023-06-22T13:59:31;24.07;;;16.90;;
26686;SDS011;14298;50.900;4.648;2023-06-22T14:01:59;35.20;;;18.23;;
26686;SDS011;14298;50.900;4.648;2023-06-22T14:04:27;33.27;;;17.77;;
26686;SDS011;14298;50.900;4.648;2023-06-22T14:06:55;42.37;;;16.83;;
26686;SDS011;14298;50.900;4.648;2023-06-22T14:09:23;37.70;;;19.13;;
26686;SDS011;14298;50.900;4.648;2023-06-22T14:11:53;29.30;;;17.23;;
26686;SDS011;14298;50.900;4.648;2023-06-22T14:14:22;23.83;;;16.80;;
26686;SDS011;14298;50.900;4.648;2023-06-22T14:16:50;44.07;;;18.87;;
26686;SDS011;14298;50.900;4.648;2023-06-22T14:19:18;25.33;;;18.67;;
26686;SDS011;14298;50.900;4.648;2023-06-22T14:21:46;24.93;;;16.97;;
26686;SDS011;14298;50.900;4.648;2023-06-22T14:24:14;36.93;;;16.60;;
26686;SDS011;14298;50.900;4.648;2023-06-22T14:26:42;20.13;;;16.70;;
26686;SDS011;14298;50.900;4.648;2023-06-22T14:29:10;29.87;;;17.43;;
26686;SDS011;14298;50.900;4.648;2023-06-22T14:31:38;26.93;;;18.40;;
26686;SDS011;14298;50.900;4.648;2023-06-22T14:34:06;32.60;;;16.20;;
26686;SDS011;14298;50.900;4.648;2023-06-22T14:36:34;31.17;;;18.57;;
26686;SDS011;14298;50.900;4.648;2023-06-22T14:39:02;27.73;;;17.90;;
26686;SDS011;14298;50.900;4.648;2023-06-22T14:41:31;27.40;;;17.70;;
26686;SDS011;14298;50.900;4.648;2023-06-22T14:43:59;32.40;;;18.47;;
26686;SDS011;14298;50.900;4.648;2023-06-22T14:46:27;27.27;;;17.33;;
26686;SDS011;14298;50.900;4.648;2023-06-22T14:48:55;23.30;;;16.47;;
26686;SDS011;14298;50.900;4.648;2023-06-22T14:51:24;37.43;;;17.20;;
26686;SDS011;14298;50.900;4.648;2023-06-22T14:53:52;28.03;;;17.30;;
26686;SDS011;14298;50.900;4.648;2023-06-22T14:56:20;26.70;;;18.57;;
26686;SDS011;14298;50.900;4.648;2023-06-22T14:58:48;26.13;;;16.50;;